< < Back
Terminal Aerodrome Forecast


Current Version              Previous Versions:   1  2  3  4  5  6  7  8  9  

Terminal Aerodrome Forecast

998
FTUS42 KGSP 021731
TAFHKY
TAF
KHKY 021731Z 0218/0318 30004KT P6SM SCT060
     FM022200 00000KT P6SM BKN060
     FM030400 36003KT P6SM SCT050=



Latest METAR

739
SAUS70 KWBC 031500 RRE
MTRHKY
METAR KHKY 031453Z 00000KT 10SM CLR 27/19 A3004 RMK AO2 SLP147 T02670189
53003


USA.gov is the U.S. government's official web portal to all federal, state and local government web resources and services.